sensor_id;sensor_type;location;lat;lon;timestamp;pressure;altitude;pressure_sealevel;temperature;humidity
6387;BME280;3226;42.162;24.756;2024-01-15T00:00:52;99288.41;;;-3.72;100.00
6387;BME280;3226;42.162;24.756;2024-01-15T00:03:20;99288.50;;;-3.75;100.00
6387;BME280;3226;42.162;24.756;2024-01-15T00:05:49;99290.28;;;-3.78;100.00
6387;BME280;3226;42.162;24.756;2024-01-15T00:08:17;99280.69;;;-3.71;100.00
6387;BME280;3226;42.162;24.756;2024-01-15T00:10:45;99284.75;;;-3.64;100.00
6387;BME280;3226;42.162;24.756;2024-01-15T00:13:13;99192.38;;;-4.13;100.00
6387;BME280;3226;42.162;24.756;2024-01-15T00:15:42;99258.06;;;-3.85;100.00
6387;BME280;3226;42.162;24.756;2024-01-15T00:18:10;99269.53;;;-3.68;100.00
6387;BME280;3226;42.162;24.756;2024-01-15T00:20:39;99281.38;;;-3.64;100.00
6387;BME280;3226;42.162;24.756;2024-01-15T00:23:07;99275.50;;;-3.68;100.00
6387;BME280;3226;42.162;24.756;2024-01-15T00:25:34;99263.94;;;-3.81;100.00
6387;BME280;3226;42.162;24.756;2024-01-15T00:28:03;99281.50;;;-3.69;100.00
6387;BME280;3226;42.162;24.756;2024-01-15T00:30:31;99276.69;;;-3.80;100.00
6387;BME280;3226;42.162;24.756;2024-01-15T00:33:00;99281.88;;;-3.81;100.00
6387;BME280;3226;42.162;24.756;2024-01-15T00:35:29;99206.41;;;-4.26;100.00
6387;BME280;3226;42.162;24.756;2024-01-15T00:37:57;99251.75;;;-4.01;100.00
6387;BME280;3226;42.162;24.756;2024-01-15T00:40:25;99266.34;;;-3.77;100.00
6387;BME280;3226;42.162;24.756;2024-01-15T00:42:53;99264.59;;;-3.74;100.00
6387;BME280;3226;42.162;24.756;2024-01-15T00:45:21;99269.69;;;-3.74;100.00
6387;BME280;3226;42.162;24.756;2024-01-15T00:47:49;99268.00;;;-3.74;100.00
6387;BME280;3226;42.162;24.756;2024-01-15T00:50:19;99269.31;;;-3.90;100.00
6387;BME280;3226;42.162;24.756;2024-01-15T00:52:47;99179.13;;;-4.56;100.00
6387;BME280;3226;42.162;24.756;2024-01-15T00:55:15;99258.34;;;-3.94;100.00
6387;BME280;3226;42.162;24.756;2024-01-15T00:57:43;99182.59;;;-4.28;100.00
6387;BME280;3226;42.162;24.756;2024-01-15T01:00:12;99256.41;;;-3.86;100.00
6387;BME280;3226;42.162;24.756;2024-01-15T01:02:40;99250.63;;;-3.93;100.00
6387;BME280;3226;42.162;24.756;2024-01-15T01:05:08;99252.13;;;-3.85;100.00
6387;BME280;3226;42.162;24.756;2024-01-15T01:07:37;99232.19;;;-4.04;100.00
6387;BME280;3226;42.162;24.756;2024-01-15T01:10:06;99253.59;;;-4.07;100.00
6387;BME280;3226;42.162;24.756;2024-01-15T01:12:34;99131.41;;;-4.87;100.00
6387;BME280;3226;42.162;24.756;2024-01-15T01:15:03;99255.03;;;-4.28;100.00
6387;BME280;3226;42.162;24.756;2024-01-15T01:17:31;99224.97;;;-4.51;100.00
6387;BME280;3226;42.162;24.756;2024-01-15T01:19:59;99242.59;;;-4.40;100.00
6387;BME280;3226;42.162;24.756;2024-01-15T01:22:31;99246.06;;;-4.43;100.00
6387;BME280;3226;42.162;24.756;2024-01-15T01:25:00;99248.59;;;-4.41;100.00
6387;BME280;3226;42.162;24.756;2024-01-15T01:27:28;99252.13;;;-4.47;100.00
6387;BME280;3226;42.162;24.756;2024-01-15T01:29:56;99258.84;;;-4.43;100.00
6387;BME280;3226;42.162;24.756;2024-01-15T01:32:24;99256.69;;;-4.58;100.00
6387;BME280;3226;42.162;24.756;2024-01-15T01:34:52;99248.66;;;-4.76;100.00
6387;BME280;3226;42.162;24.756;2024-01-15T01:37:20;99184.94;;;-5.15;100.00
6387;BME280;3226;42.162;24.756;2024-01-15T01:39:48;99255.06;;;-4.94;100.00
6387;BME280;3226;42.162;24.756;2024-01-15T01:42:18;99243.22;;;-4.98;100.00
6387;BME280;3226;42.162;24.756;2024-01-15T01:44:46;99240.75;;;-5.00;100.00
6387;BME280;3226;42.162;24.756;2024-01-15T01:47:14;99241.81;;;-4.75;100.00
6387;BME280;3226;42.162;24.756;2024-01-15T01:49:42;99232.84;;;-4.90;100.00
6387;BME280;3226;42.162;24.756;2024-01-15T01:52:10;99236.75;;;-4.77;100.00
6387;BME280;3226;42.162;24.756;2024-01-15T01:54:40;99227.72;;;-4.90;100.00
6387;BME280;3226;42.162;24.756;2024-01-15T01:57:09;99230.47;;;-4.98;100.00
6387;BME280;3226;42.162;24.756;2024-01-15T01:59:40;99177.56;;;-5.26;100.00
6387;BME280;3226;42.162;24.756;2024-01-15T02:02:08;99228.31;;;-5.14;100.00
6387;BME280;3226;42.162;24.756;2024-01-15T02:04:36;99223.53;;;-5.28;100.00
6387;BME280;3226;42.162;24.756;2024-01-15T02:07:05;99228.81;;;-5.35;100.00
6387;BME280;3226;42.162;24.756;2024-01-15T02:09:33;99204.31;;;-5.41;100.00
6387;BME280;3226;42.162;24.756;2024-01-15T02:12:01;99227.66;;;-5.22;100.00
6387;BME280;3226;42.162;24.756;2024-01-15T02:14:29;99239.66;;;-5.26;100.00
6387;BME280;3226;42.162;24.756;2024-01-15T02:16:59;99215.44;;;-5.09;100.00
6387;BME280;3226;42.162;24.756;2024-01-15T02:19:27;99217.41;;;-5.20;100.00
6387;BME280;3226;42.162;24.756;2024-01-15T02:21:55;99224.78;;;-5.08;100.00
6387;BME280;3226;42.162;24.756;2024-01-15T02:24:25;99220.94;;;-4.91;100.00
6387;BME280;3226;42.162;24.756;2024-01-15T02:26:53;99165.69;;;-5.27;100.00
6387;BME280;3226;42.162;24.756;2024-01-15T02:29:21;99215.44;;;-5.09;100.00
6387;BME280;3226;42.162;24.756;2024-01-15T02:31:49;99216.00;;;-4.99;100.00
6387;BME280;3226;42.162;24.756;2024-01-15T02:34:17;99214.56;;;-5.08;100.00
6387;BME280;3226;42.162;24.756;2024-01-15T02:36:45;99214.22;;;-4.94;100.00
6387;BME280;3226;42.162;24.756;2024-01-15T02:39:13;99227.41;;;-5.11;100.00
6387;BME280;3226;42.162;24.756;2024-01-15T02:41:42;99203.59;;;-5.13;100.00
6387;BME280;3226;42.162;24.756;2024-01-15T02:44:10;99234.44;;;-4.86;100.00
6387;BME280;3226;42.162;24.756;2024-01-15T02:46:38;99226.59;;;-4.80;100.00
6387;BME280;3226;42.162;24.756;2024-01-15T02:49:06;99182.94;;;-5.04;100.00
6387;BME280;3226;42.162;24.756;2024-01-15T02:51:34;99220.50;;;-4.74;100.00
6387;BME280;3226;42.162;24.756;2024-01-15T02:54:03;99224.84;;;-4.78;100.00
6387;BME280;3226;42.162;24.756;2024-01-15T02:56:31;99221.66;;;-4.86;100.00
6387;BME280;3226;42.162;24.756;2024-01-15T02:59:00;99212.72;;;-4.70;100.00
6387;BME280;3226;42.162;24.756;2024-01-15T03:01:28;99215.50;;;-4.79;100.00
6387;BME280;3226;42.162;24.756;2024-01-15T03:03:56;99216.25;;;-4.74;100.00
6387;BME280;3226;42.162;24.756;2024-01-15T03:06:24;99207.69;;;-4.73;100.00
6387;BME280;3226;42.162;24.756;2024-01-15T03:08:52;99213.47;;;-4.66;100.00
6387;BME280;3226;42.162;24.756;2024-01-15T03:11:20;99197.56;;;-4.76;100.00
6387;BME280;3226;42.162;24.756;2024-01-15T03:13:48;99201.03;;;-4.80;100.00
6387;BME280;3226;42.162;24.756;2024-01-15T03:16:17;99204.00;;;-4.62;100.00
6387;BME280;3226;42.162;24.756;2024-01-15T03:18:46;99201.53;;;-4.66;100.00
6387;BME280;3226;42.162;24.756;2024-01-15T03:21:14;99202.50;;;-4.70;100.00
6387;BME280;3226;42.162;24.756;2024-01-15T03:23:42;99196.44;;;-4.67;100.00
6387;BME280;3226;42.162;24.756;2024-01-15T03:26:10;99152.94;;;-4.96;100.00
6387;BME280;3226;42.162;24.756;2024-01-15T03:28:38;99197.56;;;-4.76;100.00
6387;BME280;3226;42.162;24.756;2024-01-15T03:31:07;99172.16;;;-4.82;100.00
6387;BME280;3226;42.162;24.756;2024-01-15T03:33:37;99191.44;;;-4.70;100.00
6387;BME280;3226;42.162;24.756;2024-01-15T03:36:06;99199.88;;;-4.68;100.00
6387;BME280;3226;42.162;24.756;2024-01-15T03:38:34;99194.84;;;-4.70;100.00
6387;BME280;3226;42.162;24.756;2024-01-15T03:41:02;99153.81;;;-4.97;100.00
6387;BME280;3226;42.162;24.756;2024-01-15T03:43:30;99199.94;;;-4.70;100.00
6387;BME280;3226;42.162;24.756;2024-01-15T03:45:58;99196.72;;;-4.78;100.00
6387;BME280;3226;42.162;24.756;2024-01-15T03:48:26;99207.03;;;-4.81;100.00
6387;BME280;3226;42.162;24.756;2024-01-15T03:50:56;99177.22;;;-5.12;100.00
6387;BME280;3226;42.162;24.756;2024-01-15T03:53:24;99214.00;;;-4.86;100.00
6387;BME280;3226;42.162;24.756;2024-01-15T03:55:52;99117.38;;;-5.37;100.00
6387;BME280;3226;42.162;24.756;2024-01-15T03:58:20;99211.34;;;-4.83;100.00
6387;BME280;3226;42.162;24.756;2024-01-15T04:00:48;99215.03;;;-4.94;100.00
6387;BME280;3226;42.162;24.756;2024-01-15T04:03:16;99202.00;;;-5.17;100.00
6387;BME280;3226;42.162;24.756;2024-01-15T04:05:44;99201.09;;;-5.15;100.00
6387;BME280;3226;42.162;24.756;2024-01-15T04:08:13;99171.16;;;-5.43;100.00
6387;BME280;3226;42.162;24.756;2024-01-15T04:10:41;99147.56;;;-5.53;100.00
6387;BME280;3226;42.162;24.756;2024-01-15T04:13:09;99198.13;;;-5.32;100.00
6387;BME280;3226;42.162;24.756;2024-01-15T04:15:37;99193.84;;;-5.32;100.00
6387;BME280;3226;42.162;24.756;2024-01-15T04:18:05;99146.75;;;-5.55;100.00
6387;BME280;3226;42.162;24.756;2024-01-15T04:20:34;99188.13;;;-5.40;100.00
6387;BME280;3226;42.162;24.756;2024-01-15T04:23:02;99174.69;;;-5.48;100.00
6387;BME280;3226;42.162;24.756;2024-01-15T04:25:31;99196.66;;;-5.43;100.00
6387;BME280;3226;42.162;24.756;2024-01-15T04:27:59;99126.03;;;-5.77;100.00
6387;BME280;3226;42.162;24.756;2024-01-15T04:30:28;99155.88;;;-5.44;100.00
6387;BME280;3226;42.162;24.756;2024-01-15T04:32:56;99172.28;;;-5.20;100.00
6387;BME280;3226;42.162;24.756;2024-01-15T04:35:24;99169.06;;;-5.27;100.00
6387;BME280;3226;42.162;24.756;2024-01-15T04:37:52;99176.47;;;-5.17;100.00
6387;BME280;3226;42.162;24.756;2024-01-15T04:40:20;99177.56;;;-5.26;100.00
6387;BME280;3226;42.162;24.756;2024-01-15T04:42:50;99176.34;;;-5.11;100.00
6387;BME280;3226;42.162;24.756;2024-01-15T04:45:18;99172.25;;;-5.18;100.00
6387;BME280;3226;42.162;24.756;2024-01-15T04:47:46;99169.38;;;-5.39;100.00
6387;BME280;3226;42.162;24.756;2024-01-15T04:50:14;99165.06;;;-5.37;100.00
6387;BME280;3226;42.162;24.756;2024-01-15T04:52:42;99168.19;;;-5.26;100.00
6387;BME280;3226;42.162;24.756;2024-01-15T04:55:10;99158.94;;;-5.31;100.00
6387;BME280;3226;42.162;24.756;2024-01-15T04:57:38;99177.09;;;-5.42;100.00
6387;BME280;3226;42.162;24.756;2024-01-15T05:00:09;99021.19;;;-6.34;100.00
6387;BME280;3226;42.162;24.756;2024-01-15T05:02:37;99161.41;;;-5.27;100.00
6387;BME280;3226;42.162;24.756;2024-01-15T05:05:05;99159.53;;;-5.20;100.00
6387;BME280;3226;42.162;24.756;2024-01-15T05:07:33;99157.59;;;-5.10;100.00
6387;BME280;3226;42.162;24.756;2024-01-15T05:10:01;99150.31;;;-5.26;100.00
6387;BME280;3226;42.162;24.756;2024-01-15T05:12:30;99151.91;;;-5.22;100.00
6387;BME280;3226;42.162;24.756;2024-01-15T05:14:58;99137.97;;;-5.43;100.00
6387;BME280;3226;42.162;24.756;2024-01-15T05:17:28;99125.28;;;-5.46;100.00
6387;BME280;3226;42.162;24.756;2024-01-15T05:19:56;99131.75;;;-5.32;100.00
6387;BME280;3226;42.162;24.756;2024-01-15T05:22:24;99133.50;;;-5.34;100.00
6387;BME280;3226;42.162;24.756;2024-01-15T05:24:52;99106.09;;;-5.61;100.00
6387;BME280;3226;42.162;24.756;2024-01-15T05:27:20;99132.41;;;-5.59;100.00
6387;BME280;3226;42.162;24.756;2024-01-15T05:29:48;99131.88;;;-5.72;100.00
6387;BME280;3226;42.162;24.756;2024-01-15T05:32:16;99137.03;;;-5.75;100.00
6387;BME280;3226;42.162;24.756;2024-01-15T05:34:46;99119.09;;;-5.72;100.00
6387;BME280;3226;42.162;24.756;2024-01-15T05:37:14;99069.53;;;-5.96;100.00
6387;BME280;3226;42.162;24.756;2024-01-15T05:39:42;99130.31;;;-5.77;100.00
6387;BME280;3226;42.162;24.756;2024-01-15T05:42:10;99075.03;;;-6.12;100.00
6387;BME280;3226;42.162;24.756;2024-01-15T05:44:38;99117.75;;;-5.87;100.00
6387;BME280;3226;42.162;24.756;2024-01-15T05:47:06;99128.00;;;-5.88;100.00
6387;BME280;3226;42.162;24.756;2024-01-15T05:49:34;99118.47;;;-6.16;100.00
6387;BME280;3226;42.162;24.756;2024-01-15T05:52:04;99142.13;;;-6.10;100.00
6387;BME280;3226;42.162;24.756;2024-01-15T05:54:32;99137.84;;;-6.07;100.00
6387;BME280;3226;42.162;24.756;2024-01-15T05:57:00;99146.97;;;-6.00;100.00
6387;BME280;3226;42.162;24.756;2024-01-15T05:59:28;99153.59;;;-5.91;100.00
6387;BME280;3226;42.162;24.756;2024-01-15T06:01:58;99145.50;;;-5.73;100.00
6387;BME280;3226;42.162;24.756;2024-01-15T06:04:27;99133.91;;;-5.52;100.00
6387;BME280;3226;42.162;24.756;2024-01-15T06:06:55;99136.91;;;-5.34;100.00
6387;BME280;3226;42.162;24.756;2024-01-15T06:09:24;99112.94;;;-5.63;100.00
6387;BME280;3226;42.162;24.756;2024-01-15T06:11:52;99131.28;;;-5.48;100.00
6387;BME280;3226;42.162;24.756;2024-01-15T06:14:20;99134.78;;;-5.18;100.00
6387;BME280;3226;42.162;24.756;2024-01-15T06:16:48;99123.06;;;-5.25;100.00
6387;BME280;3226;42.162;24.756;2024-01-15T06:19:17;99127.72;;;-5.41;100.00
6387;BME280;3226;42.162;24.756;2024-01-15T06:21:45;99104.97;;;-5.51;100.00
6387;BME280;3226;42.162;24.756;2024-01-15T06:24:13;99151.91;;;-5.22;100.00
6387;BME280;3226;42.162;24.756;2024-01-15T06:26:43;99163.47;;;-5.08;100.00
6387;BME280;3226;42.162;24.756;2024-01-15T06:29:11;99163.31;;;-5.02;100.00
6387;BME280;3226;42.162;24.756;2024-01-15T06:31:39;99164.84;;;-4.96;100.00
6387;BME280;3226;42.162;24.756;2024-01-15T06:34:07;99163.56;;;-4.80;100.00
6387;BME280;3226;42.162;24.756;2024-01-15T06:36:36;99163.06;;;-4.61;100.00
6387;BME280;3226;42.162;24.756;2024-01-15T06:39:04;99161.34;;;-4.60;100.00
6387;BME280;3226;42.162;24.756;2024-01-15T06:41:32;99140.59;;;-4.80;100.00
6387;BME280;3226;42.162;24.756;2024-01-15T06:44:01;99156.72;;;-4.79;100.00
6387;BME280;3226;42.162;24.756;2024-01-15T06:46:29;99150.03;;;-4.83;100.00
6387;BME280;3226;42.162;24.756;2024-01-15T06:48:57;99148.13;;;-4.75;100.00
6387;BME280;3226;42.162;24.756;2024-01-15T06:51:25;99147.09;;;-4.69;100.00
6387;BME280;3226;42.162;24.756;2024-01-15T06:53:53;99149.72;;;-4.71;100.00
6387;BME280;3226;42.162;24.756;2024-01-15T06:56:21;99140.19;;;-4.66;100.00
6387;BME280;3226;42.162;24.756;2024-01-15T06:58:49;99147.78;;;-4.62;100.00
6387;BME280;3226;42.162;24.756;2024-01-15T07:01:19;99141.41;;;-4.49;100.00
6387;BME280;3226;42.162;24.756;2024-01-15T07:03:47;99145.84;;;-4.54;100.00
6387;BME280;3226;42.162;24.756;2024-01-15T07:06:15;99137.28;;;-4.53;100.00
6387;BME280;3226;42.162;24.756;2024-01-15T07:08:43;99134.16;;;-4.63;100.00
6387;BME280;3226;42.162;24.756;2024-01-15T07:11:11;99098.69;;;-4.74;100.00
6387;BME280;3226;42.162;24.756;2024-01-15T07:13:39;99148.97;;;-4.44;100.00
6387;BME280;3226;42.162;24.756;2024-01-15T07:16:07;99142.34;;;-4.22;100.00
6387;BME280;3226;42.162;24.756;2024-01-15T07:18:37;99135.22;;;-4.12;100.00
6387;BME280;3226;42.162;24.756;2024-01-15T07:21:05;99141.31;;;-4.16;100.00
6387;BME280;3226;42.162;24.756;2024-01-15T07:23:33;99122.06;;;-4.28;100.00
6387;BME280;3226;42.162;24.756;2024-01-15T07:26:01;99114.34;;;-4.26;100.00
6387;BME280;3226;42.162;24.756;2024-01-15T07:28:29;99111.84;;;-3.99;100.00
6387;BME280;3226;42.162;24.756;2024-01-15T07:30:57;99141.47;;;-3.94;100.00
6387;BME280;3226;42.162;24.756;2024-01-15T07:33:26;99144.09;;;-3.95;100.00
6387;BME280;3226;42.162;24.756;2024-01-15T07:35:55;99141.03;;;-3.78;100.00
6387;BME280;3226;42.162;24.756;2024-01-15T07:38:27;99135.94;;;-3.27;100.00
6387;BME280;3226;42.162;24.756;2024-01-15T07:40:55;99113.28;;;-3.13;100.00
6387;BME280;3226;42.162;24.756;2024-01-15T07:43:23;99119.81;;;-2.80;100.00
6387;BME280;3226;42.162;24.756;2024-01-15T07:45:51;99084.38;;;-2.93;100.00
6387;BME280;3226;42.162;24.756;2024-01-15T07:48:19;99098.09;;;-2.94;100.00
6387;BME280;3226;42.162;24.756;2024-01-15T07:50:48;99154.16;;;-2.60;100.00
6387;BME280;3226;42.162;24.756;2024-01-15T07:53:17;99153.16;;;-2.56;100.00
6387;BME280;3226;42.162;24.756;2024-01-15T07:55:46;99159.88;;;-2.54;100.00
6387;BME280;3226;42.162;24.756;2024-01-15T07:58:14;99148.56;;;-2.48;100.00
6387;BME280;3226;42.162;24.756;2024-01-15T08:00:42;99158.69;;;-2.69;100.00
6387;BME280;3226;42.162;24.756;2024-01-15T08:03:11;99137.03;;;-2.60;100.00
6387;BME280;3226;42.162;24.756;2024-01-15T08:05:39;99013.19;;;-3.32;100.00
6387;BME280;3226;42.162;24.756;2024-01-15T08:08:08;99172.38;;;-2.68;100.00
6387;BME280;3226;42.162;24.756;2024-01-15T08:10:37;99185.03;;;-2.64;100.00
6387;BME280;3226;42.162;24.756;2024-01-15T08:13:05;99185.59;;;-2.55;100.00
6387;BME280;3226;42.162;24.756;2024-01-15T08:15:36;99183.56;;;-2.47;100.00
6387;BME280;3226;42.162;24.756;2024-01-15T08:18:04;99196.50;;;-2.50;100.00
6387;BME280;3226;42.162;24.756;2024-01-15T08:20:32;99194.22;;;-2.58;100.00
6387;BME280;3226;42.162;24.756;2024-01-15T08:23:01;99113.47;;;-3.19;100.00
6387;BME280;3226;42.162;24.756;2024-01-15T08:25:29;99174.25;;;-2.73;100.00
6387;BME280;3226;42.162;24.756;2024-01-15T08:27:59;99178.69;;;-2.53;100.00
6387;BME280;3226;42.162;24.756;2024-01-15T08:30:27;99187.34;;;-2.10;100.00
6387;BME280;3226;42.162;24.756;2024-01-15T08:32:55;99183.34;;;-1.72;100.00
6387;BME280;3226;42.162;24.756;2024-01-15T08:35:33;99055.22;;;-2.22;100.00
6387;BME280;3226;42.162;24.756;2024-01-15T08:38:02;99176.31;;;-1.24;100.00
6387;BME280;3226;42.162;24.756;2024-01-15T08:40:30;99176.50;;;-1.08;100.00
6387;BME280;3226;42.162;24.756;2024-01-15T08:42:59;99178.81;;;-1.02;100.00
6387;BME280;3226;42.162;24.756;2024-01-15T08:45:28;99164.94;;;-1.39;100.00
6387;BME280;3226;42.162;24.756;2024-01-15T08:47:58;99161.97;;;-1.30;100.00
6387;BME280;3226;42.162;24.756;2024-01-15T08:50:26;99155.50;;;-1.18;100.00
6387;BME280;3226;42.162;24.756;2024-01-15T08:52:54;99139.94;;;-1.15;100.00
6387;BME280;3226;42.162;24.756;2024-01-15T08:55:22;99136.47;;;-1.14;99.65
6387;BME280;3226;42.162;24.756;2024-01-15T08:57:50;99131.91;;;-1.07;99.73
6387;BME280;3226;42.162;24.756;2024-01-15T09:00:20;99122.25;;;-1.02;98.67
6387;BME280;3226;42.162;24.756;2024-01-15T09:02:48;99126.09;;;-0.92;97.84
6387;BME280;3226;42.162;24.756;2024-01-15T09:05:16;99122.38;;;-0.84;97.14
6387;BME280;3226;42.162;24.756;2024-01-15T09:07:44;99118.41;;;-0.73;96.40
6387;BME280;3226;42.162;24.756;2024-01-15T09:10:13;99098.19;;;-0.61;96.43
6387;BME280;3226;42.162;24.756;2024-01-15T09:12:41;99111.50;;;-0.51;97.86
6387;BME280;3226;42.162;24.756;2024-01-15T09:15:09;99112.78;;;-0.42;96.28
6387;BME280;3226;42.162;24.756;2024-01-15T09:17:39;99111.47;;;-0.32;96.47
6387;BME280;3226;42.162;24.756;2024-01-15T09:20:08;99111.72;;;-0.38;95.62
6387;BME280;3226;42.162;24.756;2024-01-15T09:22:38;99104.13;;;-0.22;96.54
6387;BME280;3226;42.162;24.756;2024-01-15T09:25:07;99103.09;;;-0.18;94.81
6387;BME280;3226;42.162;24.756;2024-01-15T09:27:36;99103.34;;;-0.05;93.34
6387;BME280;3226;42.162;24.756;2024-01-15T09:30:05;99099.69;;;0.18;91.64
6387;BME280;3226;42.162;24.756;2024-01-15T09:32:35;99099.81;;;-0.03;93.98
6387;BME280;3226;42.162;24.756;2024-01-15T09:35:06;99091.13;;;0.00;94.78
6387;BME280;3226;42.162;24.756;2024-01-15T09:37:34;99080.47;;;-0.11;94.47
6387;BME280;3226;42.162;24.756;2024-01-15T09:40:14;99077.03;;;0.25;93.04
6387;BME280;3226;42.162;24.756;2024-01-15T09:42:43;99077.09;;;0.06;91.82
6387;BME280;3226;42.162;24.756;2024-01-15T09:45:13;99081.22;;;0.27;91.58
6387;BME280;3226;42.162;24.756;2024-01-15T09:47:41;99075.06;;;0.30;92.64
6387;BME280;3226;42.162;24.756;2024-01-15T09:50:13;99064.59;;;0.33;91.71
6387;BME280;3226;42.162;24.756;2024-01-15T09:52:43;99060.00;;;0.22;92.55
6387;BME280;3226;42.162;24.756;2024-01-15T09:55:13;99037.88;;;0.01;93.74
6387;BME280;3226;42.162;24.756;2024-01-15T09:57:43;99055.91;;;0.53;92.57
6387;BME280;3226;42.162;24.756;2024-01-15T10:00:13;99041.03;;;0.41;94.28
6387;BME280;3226;42.162;24.756;2024-01-15T10:02:42;99039.13;;;0.62;94.58
6387;BME280;3226;42.162;24.756;2024-01-15T10:05:10;99044.47;;;0.75;93.80
6387;BME280;3226;42.162;24.756;2024-01-15T10:07:40;99043.00;;;0.36;95.20
6387;BME280;3226;42.162;24.756;2024-01-15T10:10:10;99033.56;;;0.19;97.98
6387;BME280;3226;42.162;24.756;2024-01-15T10:12:39;99030.00;;;0.21;98.47
6387;BME280;3226;42.162;24.756;2024-01-15T10:15:09;98997.88;;;-0.07;98.98
6387;BME280;3226;42.162;24.756;2024-01-15T10:17:39;99029.69;;;0.27;97.69
6387;BME280;3226;42.162;24.756;2024-01-15T10:20:09;99022.88;;;0.09;99.11
6387;BME280;3226;42.162;24.756;2024-01-15T10:22:41;99004.00;;;-0.09;99.40
6387;BME280;3226;42.162;24.756;2024-01-15T10:25:10;98990.97;;;0.29;99.11
6387;BME280;3226;42.162;24.756;2024-01-15T10:27:39;98984.63;;;0.52;95.91
6387;BME280;3226;42.162;24.756;2024-01-15T10:30:08;98973.31;;;0.89;94.02
6387;BME280;3226;42.162;24.756;2024-01-15T10:32:37;98974.22;;;0.88;94.45
6387;BME280;3226;42.162;24.756;2024-01-15T10:35:07;98972.09;;;1.28;90.42
6387;BME280;3226;42.162;24.756;2024-01-15T10:37:35;98930.06;;;1.10;90.53
6387;BME280;3226;42.162;24.756;2024-01-15T10:40:05;98942.63;;;1.63;90.50
6387;BME280;3226;42.162;24.756;2024-01-15T10:42:34;98935.22;;;1.87;87.22
6387;BME280;3226;42.162;24.756;2024-01-15T10:45:02;98916.63;;;1.96;85.18
6387;BME280;3226;42.162;24.756;2024-01-15T10:47:30;98918.28;;;2.12;84.24
6387;BME280;3226;42.162;24.756;2024-01-15T10:49:58;98936.13;;;2.16;84.25
6387;BME280;3226;42.162;24.756;2024-01-15T10:52:27;98935.75;;;2.23;82.94
6387;BME280;3226;42.162;24.756;2024-01-15T10:54:56;98940.59;;;1.98;84.26
6387;BME280;3226;42.162;24.756;2024-01-15T10:57:27;98939.69;;;2.14;83.08
6387;BME280;3226;42.162;24.756;2024-01-15T10:59:56;98935.00;;;2.50;80.89
6387;BME280;3226;42.162;24.756;2024-01-15T11:02:25;98939.16;;;2.67;77.60
6387;BME280;3226;42.162;24.756;2024-01-15T11:04:54;98925.47;;;2.65;76.14
6387;BME280;3226;42.162;24.756;2024-01-15T11:07:23;98920.38;;;2.92;76.71
6387;BME280;3226;42.162;24.756;2024-01-15T11:09:55;98918.25;;;3.12;76.03
6387;BME280;3226;42.162;24.756;2024-01-15T11:12:26;98903.47;;;3.41;72.64
6387;BME280;3226;42.162;24.756;2024-01-15T11:15:01;98893.31;;;3.38;71.77
6387;BME280;3226;42.162;24.756;2024-01-15T11:17:58;98886.97;;;3.29;70.29
6387;BME280;3226;42.162;24.756;2024-01-15T11:20:28;98883.13;;;3.22;71.70
6387;BME280;3226;42.162;24.756;2024-01-15T11:22:56;98878.00;;;3.08;70.82
6387;BME280;3226;42.162;24.756;2024-01-15T11:25:34;98852.59;;;2.87;71.73
6387;BME280;3226;42.162;24.756;2024-01-15T11:28:04;98877.59;;;2.86;72.58
6387;BME280;3226;42.162;24.756;2024-01-15T11:30:32;98883.00;;;3.24;71.49
6387;BME280;3226;42.162;24.756;2024-01-15T11:33:03;98876.78;;;3.13;69.26
6387;BME280;3226;42.162;24.756;2024-01-15T11:35:49;98866.72;;;3.36;68.71
6387;BME280;3226;42.162;24.756;2024-01-15T11:38:27;98860.97;;;3.31;67.32
6387;BME280;3226;42.162;24.756;2024-01-15T11:40:58;98865.28;;;3.58;66.84
6387;BME280;3226;42.162;24.756;2024-01-15T11:43:29;98862.81;;;3.56;66.89
6387;BME280;3226;42.162;24.756;2024-01-15T11:46:01;98861.69;;;3.73;66.62
6387;BME280;3226;42.162;24.756;2024-01-15T11:48:37;98866.25;;;3.83;65.11
6387;BME280;3226;42.162;24.756;2024-01-15T11:51:11;98863.53;;;3.97;64.88
6387;BME280;3226;42.162;24.756;2024-01-15T11:53:43;98854.03;;;3.85;63.95
6387;BME280;3226;42.162;24.756;2024-01-15T11:56:15;98857.50;;;3.58;65.07
6387;BME280;3226;42.162;24.756;2024-01-15T11:58:45;98849.06;;;3.82;64.13
6387;BME280;3226;42.162;24.756;2024-01-15T12:01:13;98854.03;;;3.85;65.31
6387;BME280;3226;42.162;24.756;2024-01-15T12:03:41;98843.53;;;3.47;67.19
6387;BME280;3226;42.162;24.756;2024-01-15T12:06:10;98830.19;;;3.54;67.06
6387;BME280;3226;42.162;24.756;2024-01-15T12:08:38;98835.53;;;3.38;70.25
6387;BME280;3226;42.162;24.756;2024-01-15T12:11:07;98831.09;;;3.53;70.25
6387;BME280;3226;42.162;24.756;2024-01-15T12:13:38;98844.50;;;3.72;68.12
6387;BME280;3226;42.162;24.756;2024-01-15T12:16:08;98849.66;;;3.85;67.51
6387;BME280;3226;42.162;24.756;2024-01-15T12:18:36;98839.78;;;3.39;70.15
6387;BME280;3226;42.162;24.756;2024-01-15T12:21:04;98852.09;;;3.48;72.61
6387;BME280;3226;42.162;24.756;2024-01-15T12:23:33;98846.47;;;3.15;74.51
6387;BME280;3226;42.162;24.756;2024-01-15T12:26:01;98828.03;;;3.07;75.63
6387;BME280;3226;42.162;24.756;2024-01-15T12:28:30;98832.84;;;2.99;77.98
6387;BME280;3226;42.162;24.756;2024-01-15T12:30:58;98811.19;;;2.87;78.37
6387;BME280;3226;42.162;24.756;2024-01-15T12:33:28;98807.13;;;2.83;78.35
6387;BME280;3226;42.162;24.756;2024-01-15T12:35:56;98803.53;;;2.85;77.68
6387;BME280;3226;42.162;24.756;2024-01-15T12:38:24;98813.34;;;2.80;78.51
6387;BME280;3226;42.162;24.756;2024-01-15T12:40:52;98801.28;;;2.66;79.73
6387;BME280;3226;42.162;24.756;2024-01-15T12:43:21;98810.63;;;2.82;78.55
6387;BME280;3226;42.162;24.756;2024-01-15T12:45:50;98825.47;;;2.93;78.57
6387;BME280;3226;42.162;24.756;2024-01-15T12:48:18;98816.75;;;3.08;77.09
6387;BME280;3226;42.162;24.756;2024-01-15T12:50:48;98821.41;;;3.16;77.64
6387;BME280;3226;42.162;24.756;2024-01-15T12:53:16;98806.28;;;3.10;78.01
6387;BME280;3226;42.162;24.756;2024-01-15T12:55:44;98805.00;;;2.89;77.50
6387;BME280;3226;42.162;24.756;2024-01-15T12:58:12;98815.38;;;3.02;77.36
6387;BME280;3226;42.162;24.756;2024-01-15T13:00:42;98808.97;;;3.08;76.95
6387;BME280;3226;42.162;24.756;2024-01-15T13:03:10;98790.72;;;2.84;77.69
6387;BME280;3226;42.162;24.756;2024-01-15T13:05:38;98799.78;;;2.77;79.44
6387;BME280;3226;42.162;24.756;2024-01-15T13:08:08;98782.38;;;2.66;80.70
6387;BME280;3226;42.162;24.756;2024-01-15T13:10:36;98781.94;;;2.44;82.33
6387;BME280;3226;42.162;24.756;2024-01-15T13:13:05;98771.75;;;2.28;83.47
6387;BME280;3226;42.162;24.756;2024-01-15T13:15:33;98775.31;;;2.40;82.12